createdAt,value
2023-05-18T00:00:55.417Z,99.90
2023-05-18T00:03:30.939Z,99.90
2023-05-18T00:06:15.086Z,99.90
2023-05-18T00:08:47.785Z,99.90
2023-05-18T00:11:19.464Z,99.90
2023-05-18T00:14:06.290Z,99.90
2023-05-18T00:16:40.972Z,99.90
2023-05-18T00:19:27.255Z,99.90
2023-05-18T00:22:11.356Z,99.90
2023-05-18T00:24:43.463Z,99.90
2023-05-18T00:27:25.600Z,99.90
2023-05-18T00:29:57.951Z,99.90
2023-05-18T00:32:33.712Z,99.90
2023-05-18T00:35:12.815Z,99.90
2023-05-18T00:37:42.112Z,99.90
2023-05-18T00:40:20.894Z,99.90
2023-05-18T00:42:57.635Z,99.90
2023-05-18T00:45:42.778Z,99.90
2023-05-18T00:48:14.104Z,99.90
2023-05-18T00:50:51.295Z,99.90
2023-05-18T00:53:28.326Z,99.90
2023-05-18T00:56:17.022Z,99.90
2023-05-18T00:58:54.606Z,99.90
2023-05-18T01:01:32.382Z,99.90
2023-05-18T01:04:14.702Z,99.90
2023-05-18T01:07:08.694Z,99.90
2023-05-18T01:09:52.233Z,99.90
2023-05-18T01:12:33.868Z,99.90
2023-05-18T01:15:14.394Z,99.90
2023-05-18T01:18:12.757Z,99.90
2023-05-18T01:20:50.934Z,99.90
2023-05-18T01:24:03.948Z,99.90
2023-05-18T01:26:47.163Z,99.90
2023-05-18T01:29:16.165Z,99.90
2023-05-18T01:31:51.958Z,99.90
2023-05-18T01:34:39.639Z,99.90
2023-05-18T01:37:13.850Z,99.90
2023-05-18T01:39:57.214Z,99.90
2023-05-18T01:42:37.107Z,99.90
2023-05-18T01:45:40.022Z,99.90
2023-05-18T01:48:19.473Z,99.90
2023-05-18T01:50:59.366Z,99.90
2023-05-18T01:53:40.305Z,99.90
2023-05-18T01:56:27.200Z,99.90
2023-05-18T01:59:02.120Z,99.90
2023-05-18T02:01:35.541Z,99.90
2023-05-18T02:04:19.688Z,99.90
2023-05-18T02:06:54.402Z,99.90
2023-05-18T02:09:27.038Z,99.90
2023-05-18T02:12:00.366Z,99.90
2023-05-18T02:14:45.007Z,99.90
2023-05-18T02:17:31.304Z,99.90
2023-05-18T02:20:02.228Z,99.90
2023-05-18T02:22:33.510Z,99.90
2023-05-18T02:25:07.837Z,99.90
2023-05-18T02:27:37.057Z,99.90
2023-05-18T02:30:16.960Z,99.90
2023-05-18T02:32:57.462Z,99.90
2023-05-18T02:35:28.956Z,99.90
2023-05-18T02:38:04.580Z,99.90
2023-05-18T02:40:41.807Z,99.90
2023-05-18T02:43:12.616Z,99.90
2023-05-18T02:46:10.679Z,99.90
2023-05-18T02:48:56.052Z,99.90
2023-05-18T02:51:30.570Z,99.90
2023-05-18T02:54:06.373Z,99.90
2023-05-18T02:56:36.938Z,99.90
2023-05-18T02:59:16.014Z,99.90
2023-05-18T03:01:52.914Z,99.90
2023-05-18T03:04:26.283Z,99.90
2023-05-18T03:07:04.624Z,99.90
2023-05-18T03:09:34.686Z,99.90
2023-05-18T03:12:09.894Z,99.90
2023-05-18T03:14:42.201Z,99.90
2023-05-18T03:17:16.136Z,99.90
2023-05-18T03:19:56.454Z,99.90
2023-05-18T03:22:39.365Z,99.90
2023-05-18T03:25:10.166Z,99.90
2023-05-18T03:27:42.190Z,99.90
2023-05-18T03:30:16.585Z,99.90
2023-05-18T03:33:07.764Z,99.90
2023-05-18T03:38:22.661Z,99.90
2023-05-18T03:40:59.686Z,99.90
2023-05-18T03:43:36.703Z,99.90
2023-05-18T03:46:11.136Z,99.90
2023-05-18T03:48:43.398Z,99.90
2023-05-18T03:51:30.318Z,99.90
2023-05-18T03:54:08.947Z,99.90
2023-05-18T03:56:43.162Z,99.90
2023-05-18T03:59:19.890Z,99.90
2023-05-18T04:02:08.284Z,99.90
2023-05-18T04:04:50.586Z,99.90
2023-05-18T04:07:31.678Z,99.90
2023-05-18T04:10:04.942Z,99.90
2023-05-18T04:12:49.143Z,99.90
2023-05-18T04:15:24.354Z,99.90
2023-05-18T04:18:11.007Z,99.90
2023-05-18T04:20:47.997Z,99.90
2023-05-18T04:23:25.703Z,99.90
2023-05-18T04:25:57.161Z,99.90
2023-05-18T04:28:48.367Z,99.90
2023-05-18T04:31:22.381Z,99.90
2023-05-18T04:33:56.788Z,99.90
2023-05-18T04:36:31.158Z,99.90
2023-05-18T04:39:12.816Z,99.90
2023-05-18T04:41:43.677Z,99.90
2023-05-18T04:44:14.894Z,99.90
2023-05-18T04:46:44.370Z,99.90
2023-05-18T04:49:16.388Z,99.90
2023-05-18T04:51:50.986Z,99.90
2023-05-18T04:54:27.118Z,99.90
2023-05-18T04:59:51.786Z,99.90
2023-05-18T05:02:31.654Z,99.90
2023-05-18T05:05:01.819Z,99.90
2023-05-18T05:07:42.702Z,99.90
2023-05-18T05:10:16.883Z,99.90
2023-05-18T05:12:49.718Z,99.90
2023-05-18T05:15:38.143Z,99.90
2023-05-18T05:18:11.624Z,99.90
2023-05-18T05:20:43.499Z,99.90
2023-05-18T05:23:17.125Z,99.90
2023-05-18T05:25:49.018Z,99.90
2023-05-18T05:28:28.716Z,99.90
2023-05-18T05:31:07.150Z,99.90
2023-05-18T05:33:49.949Z,99.90
2023-05-18T05:36:37.503Z,99.90
2023-05-18T05:39:09.949Z,99.90
2023-05-18T05:41:42.492Z,99.90
2023-05-18T05:44:24.354Z,99.90
2023-05-18T05:47:01.020Z,99.90
2023-05-18T05:49:47.253Z,99.90
2023-05-18T05:55:07.317Z,99.90
2023-05-18T05:57:41.223Z,99.90
2023-05-18T06:00:26.170Z,99.90
2023-05-18T06:03:07.668Z,99.90
2023-05-18T06:05:43.714Z,99.90
2023-05-18T06:08:15.974Z,99.90
2023-05-18T06:10:54.352Z,99.90
2023-05-18T06:13:42.300Z,99.90
2023-05-18T06:16:15.313Z,99.90
2023-05-18T06:18:49.615Z,99.90
2023-05-18T06:21:20.451Z,99.90
2023-05-18T06:26:36.433Z,99.90
2023-05-18T06:29:10.912Z,99.90
2023-05-18T06:31:45.274Z,99.90
2023-05-18T06:34:17.649Z,99.90
2023-05-18T06:36:57.803Z,99.90
2023-05-18T06:39:40.061Z,99.90
2023-05-18T06:42:15.384Z,99.90
2023-05-18T06:44:47.648Z,99.90
2023-05-18T06:47:28.744Z,99.90
2023-05-18T06:50:15.943Z,99.90
2023-05-18T06:52:49.118Z,99.90
2023-05-18T06:55:39.260Z,99.90
2023-05-18T06:58:17.880Z,99.90
2023-05-18T07:00:52.365Z,99.90
2023-05-18T07:03:24.741Z,99.90
2023-05-18T07:08:51.607Z,99.90
2023-05-18T07:14:09.721Z,99.90
2023-05-18T07:16:40.069Z,99.90
2023-05-18T07:19:17.434Z,99.90
2023-05-18T07:21:51.364Z,99.90
2023-05-18T07:24:24.020Z,99.90
2023-05-18T07:26:55.998Z,99.90
2023-05-18T07:29:34.534Z,99.90
2023-05-18T07:32:06.214Z,99.90
2023-05-18T07:34:48.367Z,99.90
2023-05-18T07:37:21.956Z,99.90
2023-05-18T07:39:53.438Z,99.90
2023-05-18T07:42:27.243Z,99.90
2023-05-18T07:45:09.729Z,99.90
2023-05-18T07:47:42.261Z,99.90
2023-05-18T07:50:18.344Z,99.90
2023-05-18T07:52:50.424Z,99.90
2023-05-18T07:55:21.927Z,99.90
2023-05-18T07:57:56.815Z,99.90
2023-05-18T08:00:35.026Z,73.60
2023-05-18T08:03:07.144Z,73.80
2023-05-18T08:05:47.435Z,69.70
2023-05-18T08:08:21.178Z,99.90
2023-05-18T08:10:52.295Z,91.90
2023-05-18T08:13:32.577Z,72.20
2023-05-18T08:16:12.243Z,95.10
2023-05-18T08:18:50.114Z,62.70
2023-05-18T08:21:22.640Z,54.80
2023-05-18T08:23:58.520Z,70.50
2023-05-18T08:26:43.709Z,56.70
2023-05-18T08:29:20.315Z,48.60
2023-05-18T08:31:57.174Z,46.30
2023-05-18T08:34:32.633Z,41.10
2023-05-18T08:37:18.841Z,39.00
2023-05-18T08:39:52.833Z,41.60
2023-05-18T08:42:46.077Z,36.10
2023-05-18T08:48:28.435Z,36.90
2023-05-18T08:51:00.603Z,33.30
2023-05-18T08:53:44.924Z,32.60
2023-05-18T08:56:27.191Z,29.60
2023-05-18T08:59:01.092Z,28.70
2023-05-18T09:01:40.707Z,29.00
2023-05-18T09:04:14.259Z,37.20
2023-05-18T09:06:53.800Z,36.30
2023-05-18T09:09:27.632Z,27.80
2023-05-18T09:12:02.798Z,31.70
2023-05-18T09:14:34.192Z,29.00
2023-05-18T09:17:04.733Z,28.80
2023-05-18T09:19:41.740Z,28.50
2023-05-18T09:22:17.430Z,26.80
2023-05-18T09:25:04.698Z,28.00
2023-05-18T09:27:36.164Z,29.00
2023-05-18T09:30:22.774Z,27.50
2023-05-18T09:32:54.945Z,25.50
2023-05-18T09:35:43.881Z,25.10
2023-05-18T09:38:15.862Z,24.90
2023-05-18T09:40:58.679Z,26.00
2023-05-18T09:43:29.102Z,30.20
2023-05-18T09:45:59.261Z,26.00
2023-05-18T09:48:38.801Z,24.30
2023-05-18T09:51:17.981Z,24.60
2023-05-18T09:53:57.992Z,27.80
2023-05-18T09:56:31.724Z,23.80
2023-05-18T09:59:18.584Z,27.60
2023-05-18T10:02:01.485Z,24.50
2023-05-18T10:04:48.158Z,24.40
2023-05-18T10:07:41.443Z,25.30
2023-05-18T10:10:18.867Z,27.00
2023-05-18T10:12:54.318Z,25.50
2023-05-18T10:15:27.555Z,25.60
2023-05-18T10:18:04.253Z,22.60
2023-05-18T10:20:44.949Z,27.50
2023-05-18T10:23:26.634Z,24.10
2023-05-18T10:26:02.391Z,29.60
2023-05-18T10:28:54.264Z,26.40
2023-05-18T10:31:26.678Z,24.70
2023-05-18T10:34:00.775Z,23.70
2023-05-18T10:36:37.603Z,26.00
2023-05-18T10:39:23.509Z,26.40
2023-05-18T10:42:00.056Z,24.90
2023-05-18T10:44:32.069Z,22.30
2023-05-18T10:47:03.874Z,21.90
2023-05-18T10:49:49.446Z,22.00
2023-05-18T10:52:22.592Z,23.50
2023-05-18T10:54:58.869Z,24.60
2023-05-18T10:57:39.222Z,24.40
2023-05-18T11:00:34.463Z,26.40
2023-05-18T11:03:21.026Z,24.80
2023-05-18T11:06:12.453Z,22.50
2023-05-18T11:08:51.972Z,25.40
2023-05-18T11:11:26.845Z,24.60
2023-05-18T11:14:12.946Z,23.30
2023-05-18T11:16:47.988Z,25.00
2023-05-18T11:19:17.893Z,22.30
2023-05-18T11:22:17.135Z,23.50
2023-05-18T11:24:49.528Z,22.30
2023-05-18T11:27:27.745Z,22.30
2023-05-18T11:30:14.854Z,22.60
2023-05-18T11:32:56.179Z,22.80
2023-05-18T11:35:38.264Z,26.70
2023-05-18T11:38:16.045Z,24.80
2023-05-18T11:41:02.813Z,25.60
2023-05-18T11:43:34.524Z,24.00
2023-05-18T11:46:28.765Z,23.60
2023-05-18T11:49:08.944Z,24.00
2023-05-18T11:52:01.248Z,19.40
2023-05-18T11:54:32.892Z,22.60
2023-05-18T11:57:06.184Z,23.20
2023-05-18T11:59:45.999Z,24.20
2023-05-18T12:02:24.680Z,22.60
2023-05-18T12:05:01.933Z,25.20
2023-05-18T12:07:42.165Z,25.70
2023-05-18T12:10:17.527Z,28.80
2023-05-18T12:12:54.960Z,23.90
2023-05-18T12:15:36.180Z,23.50
2023-05-18T12:18:07.391Z,24.90
2023-05-18T12:20:43.075Z,27.30
2023-05-18T12:23:15.349Z,27.20
2023-05-18T12:25:50.968Z,26.70
2023-05-18T12:28:26.943Z,24.40
2023-05-18T12:31:07.926Z,26.80
2023-05-18T12:33:40.345Z,24.60
2023-05-18T12:36:16.021Z,27.60
2023-05-18T12:39:05.784Z,24.80
2023-05-18T12:41:38.785Z,22.90
2023-05-18T12:44:17.423Z,26.60
2023-05-18T12:46:55.118Z,26.00
2023-05-18T12:49:40.361Z,28.70
2023-05-18T12:52:22.140Z,27.10
2023-05-18T12:55:00.383Z,28.30
2023-05-18T12:57:31.285Z,30.20
2023-05-18T13:00:12.241Z,29.60
2023-05-18T13:02:52.660Z,30.40
2023-05-18T13:05:29.855Z,28.80
2023-05-18T13:08:04.030Z,29.10
2023-05-18T13:10:34.513Z,31.00
2023-05-18T13:13:06.674Z,34.00
2023-05-18T13:15:41.180Z,28.90
2023-05-18T13:18:14.897Z,35.80
2023-05-18T13:20:59.106Z,33.40
2023-05-18T13:23:30.660Z,31.90
2023-05-18T13:26:08.410Z,33.80
2023-05-18T13:28:45.762Z,35.70
2023-05-18T13:31:24.021Z,29.50
2023-05-18T13:34:08.000Z,35.80
2023-05-18T13:36:45.902Z,32.90
2023-05-18T13:39:17.914Z,33.30
2023-05-18T13:41:48.868Z,33.20
2023-05-18T13:44:19.484Z,32.40
2023-05-18T13:46:51.031Z,32.60
2023-05-18T13:49:24.705Z,32.30
2023-05-18T13:52:08.629Z,32.40
2023-05-18T13:54:39.746Z,31.20
2023-05-18T13:57:10.745Z,29.90
2023-05-18T13:59:41.794Z,29.60
2023-05-18T14:02:12.474Z,34.30
2023-05-18T14:04:44.304Z,31.70
2023-05-18T14:07:25.985Z,37.10
2023-05-18T14:10:24.006Z,37.60
2023-05-18T14:13:06.428Z,38.90
2023-05-18T14:15:47.369Z,39.70
2023-05-18T14:18:22.282Z,37.20
2023-05-18T14:21:02.468Z,37.10
2023-05-18T14:23:39.683Z,39.80
2023-05-18T14:26:13.996Z,35.40
2023-05-18T14:28:53.105Z,37.10
2023-05-18T14:31:37.242Z,42.60
2023-05-18T14:34:18.950Z,38.40
2023-05-18T14:37:01.502Z,34.30
2023-05-18T14:39:37.959Z,34.70
2023-05-18T14:42:11.171Z,34.40
2023-05-18T14:44:42.362Z,35.50
2023-05-18T14:47:16.044Z,36.80
2023-05-18T14:49:47.444Z,36.40
2023-05-18T14:52:24.478Z,34.70
2023-05-18T14:54:56.885Z,36.10
2023-05-18T14:57:31.102Z,36.10
2023-05-18T15:00:02.132Z,40.40
2023-05-18T15:02:32.363Z,40.70
2023-05-18T15:05:07.275Z,40.20
2023-05-18T15:07:38.621Z,39.90
2023-05-18T15:10:13.348Z,41.40
2023-05-18T15:12:49.323Z,37.10
2023-05-18T15:15:19.938Z,38.90
2023-05-18T15:18:04.369Z,40.50
2023-05-18T15:20:36.177Z,41.40
2023-05-18T15:23:23.343Z,40.20
2023-05-18T15:26:04.384Z,42.80
2023-05-18T15:28:45.394Z,43.40
2023-05-18T15:31:24.518Z,41.60
2023-05-18T15:33:58.501Z,42.40
2023-05-18T15:36:42.439Z,41.50
2023-05-18T15:39:16.724Z,45.80
2023-05-18T15:41:49.912Z,45.00
2023-05-18T15:44:23.823Z,41.00
2023-05-18T15:46:57.899Z,42.00
2023-05-18T15:49:34.456Z,45.00
2023-05-18T15:52:04.410Z,45.00
2023-05-18T15:54:37.405Z,45.10
2023-05-18T15:57:12.155Z,42.90
2023-05-18T15:59:49.679Z,50.40
2023-05-18T16:02:24.417Z,49.90
2023-05-18T16:05:05.614Z,47.20
2023-05-18T16:07:46.551Z,46.60
2023-05-18T16:10:24.845Z,48.60
2023-05-18T16:12:56.369Z,44.40
2023-05-18T16:15:27.325Z,44.40
2023-05-18T16:17:57.627Z,44.50
2023-05-18T16:20:38.174Z,45.80
2023-05-18T16:23:10.626Z,50.10
2023-05-18T16:25:42.652Z,47.60
2023-05-18T16:28:13.996Z,71.90
2023-05-18T16:30:51.560Z,60.40
2023-05-18T16:33:27.910Z,68.20
2023-05-18T16:36:02.307Z,77.50
2023-05-18T16:38:36.810Z,72.10
2023-05-18T16:41:14.165Z,72.70
2023-05-18T16:43:47.637Z,69.10
2023-05-18T16:46:22.177Z,75.20
2023-05-18T16:49:04.346Z,66.10
2023-05-18T16:51:36.193Z,65.90
2023-05-18T16:54:13.815Z,94.80
2023-05-18T16:56:47.046Z,94.80
2023-05-18T16:59:22.895Z,90.90
2023-05-18T17:01:54.746Z,92.20
2023-05-18T17:04:27.976Z,90.20
2023-05-18T17:07:00.352Z,95.50
2023-05-18T17:09:46.143Z,96.00
2023-05-18T17:12:32.024Z,99.90
2023-05-18T17:15:08.284Z,99.90
2023-05-18T17:17:39.121Z,99.90
2023-05-18T17:20:15.480Z,99.90
2023-05-18T17:22:50.897Z,99.90
2023-05-18T17:25:22.877Z,99.90
2023-05-18T17:28:07.901Z,99.90
2023-05-18T17:30:37.825Z,99.90
2023-05-18T17:33:24.882Z,99.90
2023-05-18T17:35:58.539Z,99.90
2023-05-18T17:38:32.779Z,99.90
2023-05-18T17:41:05.570Z,99.90
2023-05-18T17:43:44.305Z,99.90
2023-05-18T17:46:14.805Z,99.90
2023-05-18T17:48:50.892Z,99.90
2023-05-18T17:51:22.835Z,99.90
2023-05-18T17:53:53.782Z,99.90
2023-05-18T17:56:32.932Z,99.90
2023-05-18T17:59:19.010Z,99.90
2023-05-18T18:02:02.468Z,99.90
2023-05-18T18:04:52.630Z,99.90
2023-05-18T18:07:23.891Z,99.90
2023-05-18T18:10:10.541Z,99.90
2023-05-18T18:12:40.730Z,99.90
2023-05-18T18:15:36.722Z,99.90
2023-05-18T18:18:06.730Z,99.90
2023-05-18T18:20:41.814Z,99.90
2023-05-18T18:23:16.433Z,99.90
2023-05-18T18:25:56.302Z,99.90
2023-05-18T18:28:32.046Z,99.90
2023-05-18T18:31:16.805Z,99.90
2023-05-18T18:33:54.744Z,99.90
2023-05-18T18:36:28.511Z,99.90
2023-05-18T18:39:10.133Z,99.90
2023-05-18T18:41:43.814Z,99.90
2023-05-18T18:44:18.809Z,99.90
2023-05-18T18:47:00.557Z,99.90
2023-05-18T18:49:40.526Z,99.90
2023-05-18T18:52:15.538Z,99.90
2023-05-18T18:54:59.165Z,99.90
2023-05-18T18:57:35.958Z,99.90
2023-05-18T19:00:11.468Z,99.90
2023-05-18T19:02:57.574Z,99.90
2023-05-18T19:05:38.678Z,99.90
2023-05-18T19:10:54.514Z,99.90
2023-05-18T19:13:26.146Z,99.90
2023-05-18T19:16:01.601Z,99.90
2023-05-18T19:18:34.746Z,99.90
2023-05-18T19:21:08.419Z,99.90
2023-05-18T19:23:48.944Z,99.90
2023-05-18T19:26:21.833Z,99.90
2023-05-18T19:28:56.009Z,99.90
2023-05-18T19:31:45.274Z,99.90
2023-05-18T19:34:19.366Z,99.90
2023-05-18T19:36:49.409Z,99.90
2023-05-18T19:39:22.966Z,99.90
2023-05-18T19:41:55.872Z,99.90
2023-05-18T19:44:31.654Z,99.90
2023-05-18T19:47:12.902Z,99.90
2023-05-18T19:49:51.062Z,99.90
2023-05-18T19:52:22.519Z,99.90
2023-05-18T19:54:53.350Z,99.90
2023-05-18T19:57:31.929Z,99.90
2023-05-18T20:00:14.041Z,99.90
2023-05-18T20:02:51.462Z,99.90
2023-05-18T20:05:29.194Z,99.90
2023-05-18T20:08:08.681Z,99.90
2023-05-18T20:10:41.599Z,99.90
2023-05-18T20:13:17.089Z,99.90
2023-05-18T20:15:56.981Z,99.90
2023-05-18T20:18:38.303Z,99.90
2023-05-18T20:21:29.247Z,99.90
2023-05-18T20:24:01.070Z,99.90
2023-05-18T20:26:34.779Z,99.90
2023-05-18T20:29:16.344Z,99.90
2023-05-18T20:31:57.592Z,99.90
2023-05-18T20:34:31.131Z,99.90
2023-05-18T20:37:11.739Z,99.90
2023-05-18T20:39:55.330Z,99.90
2023-05-18T20:42:51.581Z,99.90
2023-05-18T20:45:29.793Z,99.90
2023-05-18T20:48:03.848Z,99.90
2023-05-18T20:50:34.179Z,99.90
2023-05-18T20:53:15.517Z,99.90
2023-05-18T20:55:54.942Z,99.90
2023-05-18T20:58:33.118Z,99.90
2023-05-18T21:01:08.869Z,99.90
2023-05-18T21:03:46.486Z,99.90
2023-05-18T21:06:17.346Z,99.90
2023-05-18T21:09:04.122Z,99.90
2023-05-18T21:11:40.383Z,99.90
2023-05-18T21:14:18.192Z,99.90
2023-05-18T21:16:54.509Z,99.90
2023-05-18T21:19:39.309Z,99.90
2023-05-18T21:22:11.070Z,99.90
2023-05-18T21:24:47.867Z,99.90
2023-05-18T21:30:04.548Z,99.90
2023-05-18T21:32:35.798Z,99.90
2023-05-18T21:35:10.097Z,99.90
2023-05-18T21:37:43.067Z,99.90
2023-05-18T21:40:18.890Z,99.90
2023-05-18T21:42:54.852Z,99.90
2023-05-18T21:45:25.923Z,99.90
2023-05-18T21:48:11.188Z,99.90
2023-05-18T21:50:42.231Z,99.90
2023-05-18T21:53:23.247Z,99.90
2023-05-18T21:55:57.347Z,99.90
2023-05-18T22:01:17.957Z,99.90
2023-05-18T22:03:56.003Z,99.90
2023-05-18T22:06:32.987Z,99.90
2023-05-18T22:09:18.845Z,99.90
2023-05-18T22:11:57.411Z,99.90
2023-05-18T22:14:32.468Z,99.90
2023-05-18T22:17:10.395Z,99.90
2023-05-18T22:19:51.289Z,99.90
2023-05-18T22:25:00.747Z,99.90
2023-05-18T22:27:40.070Z,99.90
2023-05-18T22:30:17.652Z,99.90
2023-05-18T22:32:58.887Z,99.90
2023-05-18T22:35:30.180Z,99.90
2023-05-18T22:38:11.309Z,99.90
2023-05-18T22:40:57.263Z,99.90
2023-05-18T22:43:32.801Z,99.90
2023-05-18T22:46:09.886Z,99.90
2023-05-18T22:48:47.976Z,99.90
2023-05-18T22:51:18.942Z,99.90
2023-05-18T22:53:53.420Z,99.90
2023-05-18T22:56:37.000Z,99.90
2023-05-18T22:59:15.977Z,99.90
2023-05-18T23:01:48.381Z,99.90
2023-05-18T23:04:26.053Z,99.90
2023-05-18T23:07:07.940Z,99.90
2023-05-18T23:09:55.910Z,99.90
2023-05-18T23:12:26.885Z,99.90
2023-05-18T23:14:58.590Z,99.90
2023-05-18T23:17:35.477Z,99.90
2023-05-18T23:20:07.862Z,99.90
2023-05-18T23:22:42.666Z,99.90
2023-05-18T23:25:20.612Z,99.90
2023-05-18T23:28:04.867Z,99.90
2023-05-18T23:30:55.323Z,99.90
2023-05-18T23:33:45.600Z,99.90
2023-05-18T23:36:24.764Z,99.90
2023-05-18T23:39:10.526Z,99.90
2023-05-18T23:41:47.830Z,99.90
2023-05-18T23:44:33.284Z,99.90
2023-05-18T23:47:19.083Z,99.90
2023-05-18T23:50:05.846Z,99.90
2023-05-18T23:52:45.666Z,99.90
2023-05-18T23:55:19.679Z,99.90
2023-05-18T23:58:00.422Z,99.90
